sensor_id;sensor_type;location;lat;lon;timestamp;pressure;altitude;pressure_sealevel;temperature;humidity
72950;BME280;64868;45.710;9.590;2023-02-03T00:00:49;99674.84;;;6.10;42.93
72950;BME280;64868;45.710;9.590;2023-02-03T00:03:19;99665.91;;;6.08;43.48
72950;BME280;64868;45.710;9.590;2023-02-03T00:05:52;99668.75;;;6.25;41.57
72950;BME280;64868;45.710;9.590;2023-02-03T00:08:23;99664.19;;;6.65;40.25
72950;BME280;64868;45.710;9.590;2023-02-03T00:10:54;99665.69;;;6.91;39.78
72950;BME280;64868;45.710;9.590;2023-02-03T00:13:27;99676.97;;;7.01;40.88
72950;BME280;64868;45.710;9.590;2023-02-03T00:15:57;99679.88;;;7.15;40.59
72950;BME280;64868;45.710;9.590;2023-02-03T00:18:27;99684.44;;;7.15;40.33
72950;BME280;64868;45.710;9.590;2023-02-03T00:21:00;99678.63;;;7.03;39.18
72950;BME280;64868;45.710;9.590;2023-02-03T00:23:30;99677.34;;;6.74;39.82
72950;BME280;64868;45.710;9.590;2023-02-03T00:26:08;99663.56;;;6.40;41.68
72950;BME280;64868;45.710;9.590;2023-02-03T00:28:38;99678.72;;;6.44;42.50
72950;BME280;64868;45.710;9.590;2023-02-03T00:31:20;99676.38;;;6.16;42.16
72950;BME280;64868;45.710;9.590;2023-02-03T00:33:54;99667.19;;;5.99;42.47
72950;BME280;64868;45.710;9.590;2023-02-03T00:36:25;99679.44;;;6.08;42.73
72950;BME280;64868;45.710;9.590;2023-02-03T00:38:53;99681.03;;;5.92;44.28
72950;BME280;64868;45.710;9.590;2023-02-03T00:41:31;99677.16;;;5.77;45.30
72950;BME280;64868;45.710;9.590;2023-02-03T00:44:03;99678.19;;;5.52;45.32
72950;BME280;64868;45.710;9.590;2023-02-03T00:46:34;99673.53;;;5.56;45.35
72950;BME280;64868;45.710;9.590;2023-02-03T00:49:07;99671.25;;;5.45;45.37
72950;BME280;64868;45.710;9.590;2023-02-03T00:51:37;99670.03;;;5.32;46.11
72950;BME280;64868;45.710;9.590;2023-02-03T00:54:09;99679.56;;;5.41;45.40
72950;BME280;64868;45.710;9.590;2023-02-03T00:56:42;99674.41;;;5.56;44.05
72950;BME280;64868;45.710;9.590;2023-02-03T00:59:15;99678.13;;;5.54;44.51
72950;BME280;64868;45.710;9.590;2023-02-03T01:01:47;99679.06;;;5.53;44.72
72950;BME280;64868;45.710;9.590;2023-02-03T01:04:18;99684.84;;;5.44;45.07
72950;BME280;64868;45.710;9.590;2023-02-03T01:06:48;99687.16;;;5.53;44.55
72950;BME280;64868;45.710;9.590;2023-02-03T01:09:15;99678.19;;;5.52;44.92
72950;BME280;64868;45.710;9.590;2023-02-03T01:11:46;99673.81;;;5.50;45.14
72950;BME280;64868;45.710;9.590;2023-02-03T01:14:18;99673.91;;;5.47;45.17
72950;BME280;64868;45.710;9.590;2023-02-03T01:16:51;99685.28;;;5.55;45.27
72950;BME280;64868;45.710;9.590;2023-02-03T01:19:23;99670.91;;;5.32;45.92
72950;BME280;64868;45.710;9.590;2023-02-03T01:21:56;99670.25;;;5.26;45.60
72950;BME280;64868;45.710;9.590;2023-02-03T01:24:30;99691.97;;;5.24;45.72
72950;BME280;64868;45.710;9.590;2023-02-03T01:27:02;99683.34;;;5.36;45.24
72950;BME280;64868;45.710;9.590;2023-02-03T01:29:32;99681.72;;;5.32;45.64
72950;BME280;64868;45.710;9.590;2023-02-03T01:32:02;99682.41;;;5.37;44.94
72950;BME280;64868;45.710;9.590;2023-02-03T01:34:35;99689.81;;;5.32;44.84
72950;BME280;64868;45.710;9.590;2023-02-03T01:37:08;99701.84;;;5.47;44.76
72950;BME280;64868;45.710;9.590;2023-02-03T01:39:35;99699.56;;;5.36;44.86
72950;BME280;64868;45.710;9.590;2023-02-03T01:42:07;99703.78;;;5.22;45.56
72950;BME280;64868;45.710;9.590;2023-02-03T01:44:41;99710.38;;;5.15;45.62
72950;BME280;64868;45.710;9.590;2023-02-03T01:47:26;99695.63;;;5.23;45.99
72950;BME280;64868;45.710;9.590;2023-02-03T01:50:07;99705.09;;;5.33;45.36
72950;BME280;64868;45.710;9.590;2023-02-03T01:52:43;99705.56;;;5.23;45.75
72950;BME280;64868;45.710;9.590;2023-02-03T01:55:14;99695.75;;;5.20;45.78
72950;BME280;64868;45.710;9.590;2023-02-03T01:57:56;99674.69;;;5.28;45.30
72950;BME280;64868;45.710;9.590;2023-02-03T02:00:26;99671.97;;;5.28;45.51
72950;BME280;64868;45.710;9.590;2023-02-03T02:02:59;99678.31;;;5.05;46.10
72950;BME280;64868;45.710;9.590;2023-02-03T02:05:33;99680.44;;;4.97;46.64
72950;BME280;64868;45.710;9.590;2023-02-03T02:08:04;99680.63;;;4.93;46.91
72950;BME280;64868;45.710;9.590;2023-02-03T02:10:35;99673.91;;;5.03;46.76
72950;BME280;64868;45.710;9.590;2023-02-03T02:13:08;99679.31;;;5.03;45.98
72950;BME280;64868;45.710;9.590;2023-02-03T02:27:25;99677.56;;;5.02;45.77
72950;BME280;64868;45.710;9.590;2023-02-03T02:32:58;99674.31;;;4.92;46.36
72950;BME280;64868;45.710;9.590;2023-02-03T02:38:34;99677.97;;;4.91;46.04
72950;BME280;64868;45.710;9.590;2023-02-03T02:44:11;99685.59;;;5.03;45.64
72950;BME280;64868;45.710;9.590;2023-02-03T02:46:50;99686.34;;;5.07;45.53
72950;BME280;64868;45.710;9.590;2023-02-03T02:50:08;99702.09;;;5.19;44.62
72950;BME280;64868;45.710;9.590;2023-02-03T02:52:12;99694.34;;;5.10;44.96
72950;BME280;64868;45.710;9.590;2023-02-03T02:54:52;99682.56;;;5.11;45.13
72950;BME280;64868;45.710;9.590;2023-02-03T02:57:25;99692.78;;;5.04;45.10
72950;BME280;64868;45.710;9.590;2023-02-03T02:59:58;99683.16;;;4.97;45.24
72950;BME280;64868;45.710;9.590;2023-02-03T03:02:36;99689.88;;;5.09;45.29
72950;BME280;64868;45.710;9.590;2023-02-03T03:05:10;99698.00;;;5.31;43.26
72950;BME280;64868;45.710;9.590;2023-02-03T03:07:45;99698.31;;;5.23;43.43
72950;BME280;64868;45.710;9.590;2023-02-03T03:10:19;99704.09;;;5.14;44.30
72950;BME280;64868;45.710;9.590;2023-02-03T03:12:54;99699.34;;;4.97;44.85
72950;BME280;64868;45.710;9.590;2023-02-03T03:15:27;99692.25;;;4.95;45.10
72950;BME280;64868;45.710;9.590;2023-02-03T03:18:05;99697.31;;;5.04;44.80
72950;BME280;64868;45.710;9.590;2023-02-03T03:20:37;99698.13;;;5.28;43.91
72950;BME280;64868;45.710;9.590;2023-02-03T03:23:12;99701.94;;;5.22;44.05
72950;BME280;64868;45.710;9.590;2023-02-03T03:25:50;99684.03;;;4.98;44.80
72950;BME280;64868;45.710;9.590;2023-02-03T03:28:31;99701.66;;;5.08;44.43
72950;BME280;64868;45.710;9.590;2023-02-03T03:31:06;99691.78;;;4.83;45.36
72950;BME280;64868;45.710;9.590;2023-02-03T03:33:38;99700.06;;;4.79;45.40
72950;BME280;64868;45.710;9.590;2023-02-03T03:36:26;99702.81;;;5.01;44.37
72950;BME280;64868;45.710;9.590;2023-02-03T03:39:13;99694.19;;;4.91;44.76
72950;BME280;64868;45.710;9.590;2023-02-03T03:42:08;99698.63;;;4.70;45.18
72950;BME280;64868;45.710;9.590;2023-02-03T03:44:44;99704.22;;;4.64;45.16
72950;BME280;64868;45.710;9.590;2023-02-03T03:47:18;99705.41;;;4.57;45.75
72950;BME280;64868;45.710;9.590;2023-02-03T03:49:56;99721.66;;;4.55;46.54
72950;BME280;64868;45.710;9.590;2023-02-03T03:52:31;99707.91;;;4.38;46.40
72950;BME280;64868;45.710;9.590;2023-02-03T03:55:04;99707.78;;;4.41;46.61
72950;BME280;64868;45.710;9.590;2023-02-03T03:57:40;99721.13;;;4.46;45.85
72950;BME280;64868;45.710;9.590;2023-02-03T04:00:16;99719.75;;;4.59;45.32
72950;BME280;64868;45.710;9.590;2023-02-03T04:02:47;99726.50;;;4.71;44.98
72950;BME280;64868;45.710;9.590;2023-02-03T04:05:20;99714.28;;;4.60;45.58
72950;BME280;64868;45.710;9.590;2023-02-03T04:07:51;99711.38;;;4.65;45.27
72950;BME280;64868;45.710;9.590;2023-02-03T04:10:41;99707.50;;;4.49;45.75
72950;BME280;64868;45.710;9.590;2023-02-03T04:13:12;99725.34;;;4.53;45.99
72950;BME280;64868;45.710;9.590;2023-02-03T04:15:44;99723.78;;;4.47;45.90
72950;BME280;64868;45.710;9.590;2023-02-03T04:18:18;99722.31;;;4.62;45.24
72950;BME280;64868;45.710;9.590;2023-02-03T04:20:48;99716.22;;;4.80;44.47
72950;BME280;64868;45.710;9.590;2023-02-03T04:23:21;99701.59;;;4.62;44.68
72950;BME280;64868;45.710;9.590;2023-02-03T04:25:53;99715.03;;;4.64;44.32
72950;BME280;64868;45.710;9.590;2023-02-03T04:28:26;99713.81;;;4.73;43.89
72950;BME280;64868;45.710;9.590;2023-02-03T04:30:58;99699.22;;;4.77;44.14
72950;BME280;64868;45.710;9.590;2023-02-03T04:33:28;99705.53;;;4.77;43.69
72950;BME280;64868;45.710;9.590;2023-02-03T04:35:59;99705.19;;;4.86;43.09
72950;BME280;64868;45.710;9.590;2023-02-03T04:38:26;99713.06;;;4.93;43.00
72950;BME280;64868;45.710;9.590;2023-02-03T04:40:59;99704.44;;;4.58;44.20
72950;BME280;64868;45.710;9.590;2023-02-03T04:43:31;99703.75;;;4.53;44.81
72950;BME280;64868;45.710;9.590;2023-02-03T04:46:05;99694.22;;;4.43;44.50
72950;BME280;64868;45.710;9.590;2023-02-03T04:48:37;99706.03;;;4.40;44.49
72950;BME280;64868;45.710;9.590;2023-02-03T04:51:08;99710.91;;;4.54;43.97
72950;BME280;64868;45.710;9.590;2023-02-03T04:53:41;99693.03;;;4.75;43.36
72950;BME280;64868;45.710;9.590;2023-02-03T04:56:11;99712.25;;;5.12;42.68
72950;BME280;64868;45.710;9.590;2023-02-03T04:58:42;99698.09;;;5.06;42.94
72950;BME280;64868;45.710;9.590;2023-02-03T05:01:09;99704.13;;;4.67;43.62
72950;BME280;64868;45.710;9.590;2023-02-03T05:03:40;99714.81;;;4.70;43.50
72950;BME280;64868;45.710;9.590;2023-02-03T05:06:10;99712.41;;;4.86;42.55
72950;BME280;64868;45.710;9.590;2023-02-03T05:08:40;99710.56;;;4.86;44.07
72950;BME280;64868;45.710;9.590;2023-02-03T05:11:10;99705.56;;;4.99;42.94
72950;BME280;64868;45.710;9.590;2023-02-03T05:13:43;99705.09;;;4.64;44.31
72950;BME280;64868;45.710;9.590;2023-02-03T05:16:15;99694.59;;;4.33;44.56
72950;BME280;64868;45.710;9.590;2023-02-03T05:18:46;99704.03;;;4.20;45.99
72950;BME280;64868;45.710;9.590;2023-02-03T05:21:18;99712.72;;;4.30;45.79
72950;BME280;64868;45.710;9.590;2023-02-03T05:23:48;99709.03;;;4.32;45.82
72950;BME280;64868;45.710;9.590;2023-02-03T05:26:18;99716.03;;;4.13;46.39
72950;BME280;64868;45.710;9.590;2023-02-03T05:28:51;99712.94;;;3.99;45.91
72950;BME280;64868;45.710;9.590;2023-02-03T05:31:21;99728.00;;;4.04;45.50
72950;BME280;64868;45.710;9.590;2023-02-03T05:33:51;99740.16;;;3.91;46.26
72950;BME280;64868;45.710;9.590;2023-02-03T05:36:24;99729.94;;;3.74;46.39
72950;BME280;64868;45.710;9.590;2023-02-03T05:38:54;99724.28;;;3.82;46.89
72950;BME280;64868;45.710;9.590;2023-02-03T05:41:22;99720.34;;;3.92;46.32
72950;BME280;64868;45.710;9.590;2023-02-03T05:44:10;99736.09;;;4.04;45.16
72950;BME280;64868;45.710;9.590;2023-02-03T05:46:43;99730.81;;;4.01;45.53
72950;BME280;64868;45.710;9.590;2023-02-03T05:49:16;99723.09;;;3.90;46.11
72950;BME280;64868;45.710;9.590;2023-02-03T05:51:48;99725.66;;;3.94;45.56
72950;BME280;64868;45.710;9.590;2023-02-03T05:54:21;99731.91;;;3.96;45.63
72950;BME280;64868;45.710;9.590;2023-02-03T05:56:49;99744.41;;;3.98;45.32
72950;BME280;64868;45.710;9.590;2023-02-03T05:59:21;99741.47;;;3.79;46.55
72950;BME280;64868;45.710;9.590;2023-02-03T06:01:51;99731.50;;;3.81;46.08
72950;BME280;64868;45.710;9.590;2023-02-03T06:04:22;99756.66;;;3.82;45.94
72950;BME280;64868;45.710;9.590;2023-02-03T06:06:52;99736.44;;;3.95;46.22
72950;BME280;64868;45.710;9.590;2023-02-03T06:09:24;99723.09;;;3.90;46.06
72950;BME280;64868;45.710;9.590;2023-02-03T06:11:57;99719.91;;;3.79;46.95
72950;BME280;64868;45.710;9.590;2023-02-03T06:14:30;99728.81;;;3.81;46.04
72950;BME280;64868;45.710;9.590;2023-02-03T06:17:02;99730.00;;;3.73;46.52
72950;BME280;64868;45.710;9.590;2023-02-03T06:19:28;99738.81;;;3.78;46.32
72950;BME280;64868;45.710;9.590;2023-02-03T06:22:00;99732.09;;;3.64;46.81
72950;BME280;64868;45.710;9.590;2023-02-03T06:24:30;99743.75;;;3.65;46.81
72950;BME280;64868;45.710;9.590;2023-02-03T06:27:00;99731.31;;;3.61;46.81
72950;BME280;64868;45.710;9.590;2023-02-03T06:29:28;99724.97;;;3.62;46.72
72950;BME280;64868;45.710;9.590;2023-02-03T06:31:58;99730.09;;;3.70;47.29
72950;BME280;64868;45.710;9.590;2023-02-03T06:34:29;99735.75;;;3.62;47.38
72950;BME280;64868;45.710;9.590;2023-02-03T06:37:01;99743.41;;;3.48;47.89
72950;BME280;64868;45.710;9.590;2023-02-03T06:39:31;99756.16;;;3.42;48.25
72950;BME280;64868;45.710;9.590;2023-02-03T06:41:59;99765.47;;;3.32;49.56
72950;BME280;64868;45.710;9.590;2023-02-03T06:44:29;99758.41;;;3.28;48.85
72950;BME280;64868;45.710;9.590;2023-02-03T06:46:59;99775.31;;;3.33;49.52
72950;BME280;64868;45.710;9.590;2023-02-03T06:49:31;99781.69;;;3.31;49.65
72950;BME280;64868;45.710;9.590;2023-02-03T06:51:59;99801.19;;;3.39;49.40
72950;BME280;64868;45.710;9.590;2023-02-03T06:54:29;99782.38;;;3.37;48.61
72950;BME280;64868;45.710;9.590;2023-02-03T06:56:59;99784.13;;;3.38;49.06
72950;BME280;64868;45.710;9.590;2023-02-03T06:59:32;99787.38;;;3.50;49.12
72950;BME280;64868;45.710;9.590;2023-02-03T07:02:05;99815.03;;;3.56;49.39
72950;BME280;64868;45.710;9.590;2023-02-03T07:04:35;99811.88;;;3.70;48.77
72950;BME280;64868;45.710;9.590;2023-02-03T07:07:05;99813.34;;;3.80;48.25
72950;BME280;64868;45.710;9.590;2023-02-03T07:09:38;99812.75;;;3.99;48.13
72950;BME280;64868;45.710;9.590;2023-02-03T07:12:11;99807.34;;;3.99;48.29
72950;BME280;64868;45.710;9.590;2023-02-03T07:14:41;99811.72;;;4.03;48.28
72950;BME280;64868;45.710;9.590;2023-02-03T07:17:09;99812.38;;;4.09;49.33
72950;BME280;64868;45.710;9.590;2023-02-03T07:19:41;99813.03;;;4.16;48.79
72950;BME280;64868;45.710;9.590;2023-02-03T07:22:12;99816.94;;;4.07;49.13
72950;BME280;64868;45.710;9.590;2023-02-03T07:24:42;99829.28;;;4.14;49.54
72950;BME280;64868;45.710;9.590;2023-02-03T07:27:12;99827.16;;;4.24;48.86
72950;BME280;64868;45.710;9.590;2023-02-03T07:29:44;99835.25;;;4.24;48.25
72950;BME280;64868;45.710;9.590;2023-02-03T07:32:17;99848.53;;;4.30;48.59
72950;BME280;64868;45.710;9.590;2023-02-03T07:34:47;99840.44;;;4.30;48.64
72950;BME280;64868;45.710;9.590;2023-02-03T07:37:20;99853.75;;;4.36;48.44
72950;BME280;64868;45.710;9.590;2023-02-03T07:39:53;99851.50;;;4.49;48.57
72950;BME280;64868;45.710;9.590;2023-02-03T07:42:25;99849.47;;;4.56;48.75
72950;BME280;64868;45.710;9.590;2023-02-03T07:44:58;99843.50;;;4.71;48.10
72950;BME280;64868;45.710;9.590;2023-02-03T07:47:30;99861.97;;;4.83;48.13
72950;BME280;64868;45.710;9.590;2023-02-03T07:50:00;99852.22;;;4.79;47.68
72950;BME280;64868;45.710;9.590;2023-02-03T07:52:31;99864.41;;;4.91;47.73
72950;BME280;64868;45.710;9.590;2023-02-03T07:55:03;99859.06;;;4.90;47.79
72950;BME280;64868;45.710;9.590;2023-02-03T07:57:29;99850.50;;;5.02;47.35
72950;BME280;64868;45.710;9.590;2023-02-03T08:00:02;99852.59;;;5.42;45.95
72950;BME280;64868;45.710;9.590;2023-02-03T08:02:34;99844.25;;;5.70;45.37
72950;BME280;64868;45.710;9.590;2023-02-03T08:05:05;99846.94;;;5.94;44.49
72950;BME280;64868;45.710;9.590;2023-02-03T08:07:30;99843.16;;;6.20;44.75
72950;BME280;64868;45.710;9.590;2023-02-03T08:10:01;99850.75;;;6.74;44.20
72950;BME280;64868;45.710;9.590;2023-02-03T08:12:29;99851.09;;;6.87;42.86
72950;BME280;64868;45.710;9.590;2023-02-03T08:14:59;99860.09;;;6.88;43.60
72950;BME280;64868;45.710;9.590;2023-02-03T08:17:29;99857.31;;;6.69;44.29
72950;BME280;64868;45.710;9.590;2023-02-03T08:19:59;99861.84;;;6.89;43.81
72950;BME280;64868;45.710;9.590;2023-02-03T08:22:27;99867.13;;;7.12;41.42
72950;BME280;64868;45.710;9.590;2023-02-03T08:25:00;99859.94;;;7.31;43.02
72950;BME280;64868;45.710;9.590;2023-02-03T08:27:32;99859.63;;;7.56;40.54
72950;BME280;64868;45.710;9.590;2023-02-03T08:29:58;99864.47;;;7.50;41.97
72950;BME280;64868;45.710;9.590;2023-02-03T08:32:31;99842.72;;;7.70;41.04
72950;BME280;64868;45.710;9.590;2023-02-03T08:35:04;99852.66;;;8.08;39.50
72950;BME280;64868;45.710;9.590;2023-02-03T08:37:35;99852.63;;;8.26;40.34
72950;BME280;64868;45.710;9.590;2023-02-03T08:40:09;99853.34;;;8.49;39.69
72950;BME280;64868;45.710;9.590;2023-02-03T08:42:39;99856.06;;;8.49;37.86
72950;BME280;64868;45.710;9.590;2023-02-03T08:45:09;99856.53;;;8.74;38.98
72950;BME280;64868;45.710;9.590;2023-02-03T08:47:39;99852.69;;;8.78;38.67
72950;BME280;64868;45.710;9.590;2023-02-03T08:50:10;99842.38;;;9.02;37.51
72950;BME280;64868;45.710;9.590;2023-02-03T08:52:39;99833.13;;;9.22;36.81
72950;BME280;64868;45.710;9.590;2023-02-03T08:55:09;99843.13;;;10.03;36.18
72950;BME280;64868;45.710;9.590;2023-02-03T08:57:42;99844.84;;;15.37;27.71
72950;BME280;64868;45.710;9.590;2023-02-03T09:00:13;99838.66;;;17.00;24.99
72950;BME280;64868;45.710;9.590;2023-02-03T09:02:46;99853.03;;;19.07;22.07
72950;BME280;64868;45.710;9.590;2023-02-03T09:05:19;99836.59;;;22.06;18.25
72950;BME280;64868;45.710;9.590;2023-02-03T09:07:49;99847.25;;;24.41;16.28
72950;BME280;64868;45.710;9.590;2023-02-03T09:10:19;99856.16;;;24.67;14.71
72950;BME280;64868;45.710;9.590;2023-02-03T09:12:52;99837.91;;;24.17;15.59
72950;BME280;64868;45.710;9.590;2023-02-03T09:15:17;99856.28;;;23.87;15.35
72950;BME280;64868;45.710;9.590;2023-02-03T09:17:48;99856.16;;;26.35;13.30
72950;BME280;64868;45.710;9.590;2023-02-03T09:20:21;99854.19;;;28.08;11.73
72950;BME280;64868;45.710;9.590;2023-02-03T09:22:51;99856.53;;;29.49;10.88
72950;BME280;64868;45.710;9.590;2023-02-03T09:25:23;99873.66;;;29.87;10.38
72950;BME280;64868;45.710;9.590;2023-02-03T09:27:54;99879.50;;;29.79;10.43
72950;BME280;64868;45.710;9.590;2023-02-03T09:30:22;99880.50;;;29.38;10.68
72950;BME280;64868;45.710;9.590;2023-02-03T09:32:53;99871.59;;;30.74;10.67
72950;BME280;64868;45.710;9.590;2023-02-03T09:35:23;99877.72;;;31.47;9.45
72950;BME280;64868;45.710;9.590;2023-02-03T09:37:55;99869.13;;;30.13;10.69
72950;BME280;64868;45.710;9.590;2023-02-03T09:40:34;99868.69;;;29.83;11.07
72950;BME280;64868;45.710;9.590;2023-02-03T09:46:20;99880.44;;;23.62;16.72
72950;BME280;64868;45.710;9.590;2023-02-03T09:48:53;99880.63;;;23.28;17.38
72950;BME280;64868;45.710;9.590;2023-02-03T09:51:33;99882.53;;;23.11;17.17
72950;BME280;64868;45.710;9.590;2023-02-03T09:54:12;99873.66;;;21.27;19.11
72950;BME280;64868;45.710;9.590;2023-02-03T09:56:49;99879.31;;;25.76;16.09
72950;BME280;64868;45.710;9.590;2023-02-03T09:59:25;99880.63;;;25.88;15.12
72950;BME280;64868;45.710;9.590;2023-02-03T10:04:40;99887.44;;;24.86;17.11
72950;BME280;64868;45.710;9.590;2023-02-03T10:10:29;99874.13;;;24.09;18.61
72950;BME280;64868;45.710;9.590;2023-02-03T10:13:28;99879.94;;;26.90;15.48
72950;BME280;64868;45.710;9.590;2023-02-03T10:16:20;99884.72;;;29.01;14.01
72950;BME280;64868;45.710;9.590;2023-02-03T10:18:56;99877.38;;;28.58;14.41
72950;BME280;64868;45.710;9.590;2023-02-03T10:21:38;99877.16;;;26.01;16.98
72950;BME280;64868;45.710;9.590;2023-02-03T10:24:11;99880.28;;;27.38;16.65
72950;BME280;64868;45.710;9.590;2023-02-03T10:26:43;99883.22;;;21.68;22.48
72950;BME280;64868;45.710;9.590;2023-02-03T10:29:20;99873.22;;;22.86;21.91
72950;BME280;64868;45.710;9.590;2023-02-03T10:31:52;99870.69;;;22.50;21.83
72950;BME280;64868;45.710;9.590;2023-02-03T10:34:23;99874.47;;;22.41;21.95
72950;BME280;64868;45.710;9.590;2023-02-03T10:37:02;99879.34;;;24.12;19.79
72950;BME280;64868;45.710;9.590;2023-02-03T10:39:44;99874.03;;;21.50;22.38
72950;BME280;64868;45.710;9.590;2023-02-03T10:42:14;99878.34;;;23.89;20.53
72950;BME280;64868;45.710;9.590;2023-02-03T10:44:48;99885.25;;;25.73;18.00
72950;BME280;64868;45.710;9.590;2023-02-03T10:47:33;99876.31;;;26.15;18.41
72950;BME280;64868;45.710;9.590;2023-02-03T10:50:31;99859.63;;;24.30;19.75
72950;BME280;64868;45.710;9.590;2023-02-03T10:53:33;99860.63;;;23.82;20.09
72950;BME280;64868;45.710;9.590;2023-02-03T10:56:07;99860.19;;;22.87;21.37
72950;BME280;64868;45.710;9.590;2023-02-03T10:58:40;99854.56;;;22.62;22.05
72950;BME280;64868;45.710;9.590;2023-02-03T11:01:18;99852.84;;;22.69;22.07
72950;BME280;64868;45.710;9.590;2023-02-03T11:04:02;99858.38;;;21.93;22.80
72950;BME280;64868;45.710;9.590;2023-02-03T11:06:32;99862.59;;;19.42;26.42
72950;BME280;64868;45.710;9.590;2023-02-03T11:09:41;99869.72;;;19.44;27.19
72950;BME280;64868;45.710;9.590;2023-02-03T11:12:16;99836.25;;;21.13;24.63
72950;BME280;64868;45.710;9.590;2023-02-03T11:14:52;99839.88;;;21.75;24.73
72950;BME280;64868;45.710;9.590;2023-02-03T11:17:28;99838.81;;;21.68;24.60
72950;BME280;64868;45.710;9.590;2023-02-03T11:20:20;99831.34;;;19.03;28.57
72950;BME280;64868;45.710;9.590;2023-02-03T11:22:50;99824.13;;;19.58;28.01
72950;BME280;64868;45.710;9.590;2023-02-03T11:25:25;99818.28;;;20.99;25.60
72950;BME280;64868;45.710;9.590;2023-02-03T11:28:03;99811.34;;;19.95;27.12
72950;BME280;64868;45.710;9.590;2023-02-03T11:30:33;99798.81;;;19.53;27.56
72950;BME280;64868;45.710;9.590;2023-02-03T11:33:21;99785.88;;;21.44;24.82
72950;BME280;64868;45.710;9.590;2023-02-03T11:36:03;99788.34;;;19.94;27.40
72950;BME280;64868;45.710;9.590;2023-02-03T11:38:36;99779.47;;;20.81;25.25
72950;BME280;64868;45.710;9.590;2023-02-03T11:41:08;99786.38;;;20.95;25.02
72950;BME280;64868;45.710;9.590;2023-02-03T11:43:45;99778.75;;;19.41;27.10
72950;BME280;64868;45.710;9.590;2023-02-03T11:46:16;99777.94;;;18.54;28.00
72950;BME280;64868;45.710;9.590;2023-02-03T11:49:02;99767.59;;;16.94;28.77
72950;BME280;64868;45.710;9.590;2023-02-03T11:51:43;99770.44;;;15.63;32.35
72950;BME280;64868;45.710;9.590;2023-02-03T12:06:54;99740.56;;;11.06;46.70
72950;BME280;64868;45.710;9.590;2023-02-03T12:09:30;99731.84;;;11.57;45.04
72950;BME280;64868;45.710;9.590;2023-02-03T12:12:42;99727.56;;;11.53;44.13
72950;BME280;64868;45.710;9.590;2023-02-03T12:15:48;99709.31;;;11.53;44.61
72950;BME280;64868;45.710;9.590;2023-02-03T12:18:30;99714.53;;;11.15;46.65
72950;BME280;64868;45.710;9.590;2023-02-03T12:27:04;99683.47;;;11.17;46.24
72950;BME280;64868;45.710;9.590;2023-02-03T12:30:08;99683.22;;;11.20;46.19
72950;BME280;64868;45.710;9.590;2023-02-03T12:33:02;99661.19;;;11.24;46.12
72950;BME280;64868;45.710;9.590;2023-02-03T12:35:40;99659.50;;;11.35;44.75
72950;BME280;64868;45.710;9.590;2023-02-03T12:38:23;99648.03;;;11.57;42.30
72950;BME280;64868;45.710;9.590;2023-02-03T12:41:00;99643.66;;;11.55;41.64
72950;BME280;64868;45.710;9.590;2023-02-03T12:43:49;99645.13;;;11.60;42.12
72950;BME280;64868;45.710;9.590;2023-02-03T12:46:24;99641.09;;;11.93;41.44
72950;BME280;64868;45.710;9.590;2023-02-03T12:51:50;99630.75;;;11.98;42.29
72950;BME280;64868;45.710;9.590;2023-02-03T12:54:48;99624.75;;;12.18;41.22
72950;BME280;64868;45.710;9.590;2023-02-03T12:57:43;99622.94;;;11.92;42.25
72950;BME280;64868;45.710;9.590;2023-02-03T13:03:20;99618.19;;;11.81;42.97
72950;BME280;64868;45.710;9.590;2023-02-03T13:14:29;99596.47;;;11.53;42.60
72950;BME280;64868;45.710;9.590;2023-02-03T13:17:05;99598.53;;;11.49;42.04
72950;BME280;64868;45.710;9.590;2023-02-03T13:19:49;99590.84;;;11.68;41.72
72950;BME280;64868;45.710;9.590;2023-02-03T13:22:24;99576.44;;;11.79;41.86
72950;BME280;64868;45.710;9.590;2023-02-03T13:25:26;99580.81;;;12.09;41.15
72950;BME280;64868;45.710;9.590;2023-02-03T13:29:09;99573.47;;;12.09;40.78
72950;BME280;64868;45.710;9.590;2023-02-03T13:34:15;99556.63;;;12.28;41.41
72950;BME280;64868;45.710;9.590;2023-02-03T13:37:17;99555.66;;;12.16;41.02
72950;BME280;64868;45.710;9.590;2023-02-03T13:42:45;99547.88;;;12.23;40.53
72950;BME280;64868;45.710;9.590;2023-02-03T13:45:32;99540.66;;;12.48;40.35
72950;BME280;64868;45.710;9.590;2023-02-03T13:48:15;99538.75;;;12.61;39.96
72950;BME280;64868;45.710;9.590;2023-02-03T13:50:49;99521.59;;;12.59;39.60
72950;BME280;64868;45.710;9.590;2023-02-03T13:53:23;99522.97;;;12.77;39.20
72950;BME280;64868;45.710;9.590;2023-02-03T13:56:00;99525.81;;;12.88;39.51
72950;BME280;64868;45.710;9.590;2023-02-03T13:58:33;99518.25;;;12.92;39.12
72950;BME280;64868;45.710;9.590;2023-02-03T14:01:27;99507.09;;;13.06;38.12
72950;BME280;64868;45.710;9.590;2023-02-03T14:03:57;99502.00;;;13.26;37.38
72950;BME280;64868;45.710;9.590;2023-02-03T14:09:33;99501.50;;;13.56;36.22
72950;BME280;64868;45.710;9.590;2023-02-03T14:12:33;99491.19;;;13.59;35.72
72950;BME280;64868;45.710;9.590;2023-02-03T14:15:15;99489.78;;;13.89;34.15
72950;BME280;64868;45.710;9.590;2023-02-03T14:23:13;99478.84;;;14.23;35.22
72950;BME280;64868;45.710;9.590;2023-02-03T14:25:50;99473.63;;;14.42;34.62
72950;BME280;64868;45.710;9.590;2023-02-03T14:28:23;99477.88;;;14.69;33.77
72950;BME280;64868;45.710;9.590;2023-02-03T14:31:05;99467.91;;;14.68;34.53
72950;BME280;64868;45.710;9.590;2023-02-03T14:33:50;99470.16;;;14.74;33.89
72950;BME280;64868;45.710;9.590;2023-02-03T14:36:48;99463.41;;;14.67;35.06
72950;BME280;64868;45.710;9.590;2023-02-03T14:39:32;99469.53;;;14.36;36.12
72950;BME280;64868;45.710;9.590;2023-02-03T14:42:21;99461.53;;;14.33;35.87
72950;BME280;64868;45.710;9.590;2023-02-03T14:45:12;99459.53;;;14.02;36.14
72950;BME280;64868;45.710;9.590;2023-02-03T14:53:56;99458.63;;;13.90;34.05
72950;BME280;64868;45.710;9.590;2023-02-03T15:02:26;99458.72;;;13.66;36.01
72950;BME280;64868;45.710;9.590;2023-02-03T15:07:49;99447.09;;;13.51;36.00
72950;BME280;64868;45.710;9.590;2023-02-03T15:10:23;99450.19;;;13.47;35.70
72950;BME280;64868;45.710;9.590;2023-02-03T15:12:59;99439.94;;;13.26;35.80
72950;BME280;64868;45.710;9.590;2023-02-03T15:15:30;99435.34;;;13.14;35.73
72950;BME280;64868;45.710;9.590;2023-02-03T15:18:21;99437.94;;;13.04;36.30
72950;BME280;64868;45.710;9.590;2023-02-03T15:20:55;99444.88;;;12.73;37.75